West Hempstead, New York
Current Conditions -  °F | °C
As of 9:51 PM on Friday 19 Dec 2014 (Local Time) from KJFK Reporting Station
Scattered Clouds Scattered Clouds  
Wind Chill: 25°   Ceiling: Unl
Heat Index: 33°   Visibility: 10mi
Dew Point: 20°   Wind: 10mph
Humidity: 59%   Direction: 320°NW
Pressure: 30.18"   Gusts: NA
Location:  40.7°N, 73.65°W
Report Text: KJFK 200251Z 32009KT 10SM SCT033 01/M07 A3018 RMK AO2 SLP218 T00061067 53005 $
Loading
Personal Weather Stations






























Interactive Weather Map New forecast layout! Learn more

10-Day Weather Forecast

Advertisements
Track Severe Weather on mobile